createdAt,value
2023-04-10T00:00:01.832Z,6.32
2023-04-10T00:02:33.693Z,6.00
2023-04-10T00:05:02.670Z,7.28
2023-04-10T00:07:31.675Z,5.65
2023-04-10T00:10:00.389Z,6.05
2023-04-10T00:12:29.189Z,4.85
2023-04-10T00:14:59.459Z,5.07
2023-04-10T00:17:28.159Z,5.78
2023-04-10T00:19:56.842Z,4.93
2023-04-10T00:22:25.760Z,4.95
2023-04-10T00:24:54.486Z,6.40
2023-04-10T00:27:23.149Z,5.63
2023-04-10T00:29:52.084Z,5.45
2023-04-10T00:32:22.556Z,6.47
2023-04-10T00:34:53.127Z,5.93
2023-04-10T00:37:21.862Z,5.30
2023-04-10T00:39:50.776Z,5.63
2023-04-10T00:42:19.377Z,6.28
2023-04-10T00:44:48.194Z,5.53
2023-04-10T00:47:16.965Z,6.60
2023-04-10T00:49:47.123Z,6.50
2023-04-10T00:52:15.786Z,6.10
2023-04-10T00:54:45.218Z,6.20
2023-04-10T00:57:14.097Z,5.93
2023-04-10T00:59:43.721Z,5.55
2023-04-10T01:02:13.284Z,5.45
2023-04-10T01:04:42.729Z,6.00
2023-04-10T01:07:17.841Z,6.30
2023-04-10T01:09:49.414Z,6.55
2023-04-10T01:12:25.438Z,5.38
2023-04-10T01:14:58.907Z,5.85
2023-04-10T01:17:30.862Z,5.07
2023-04-10T01:20:01.420Z,6.00
2023-04-10T01:22:36.216Z,5.70
2023-04-10T01:25:19.555Z,6.05
2023-04-10T01:27:51.942Z,5.40
2023-04-10T01:30:22.799Z,7.43
2023-04-10T01:32:52.510Z,5.55
2023-04-10T01:35:21.685Z,6.50
2023-04-10T01:37:51.302Z,6.53
2023-04-10T01:40:21.397Z,6.30
2023-04-10T01:42:53.761Z,6.18
2023-04-10T01:45:29.397Z,5.72
2023-04-10T01:47:58.313Z,5.65
2023-04-10T01:50:28.652Z,6.30
2023-04-10T01:52:58.477Z,6.18
2023-04-10T01:55:29.587Z,5.95
2023-04-10T01:58:05.131Z,6.10
2023-04-10T02:00:41.714Z,5.15
2023-04-10T02:03:11.457Z,5.57
2023-04-10T02:05:46.172Z,6.28
2023-04-10T02:08:17.382Z,6.63
2023-04-10T02:10:53.328Z,5.93
2023-04-10T02:13:23.387Z,5.13
2023-04-10T02:15:53.515Z,5.40
2023-04-10T02:18:23.940Z,5.72
2023-04-10T02:20:52.762Z,5.68
2023-04-10T02:23:21.970Z,5.13
2023-04-10T02:25:50.622Z,5.85
2023-04-10T02:28:19.630Z,6.22
2023-04-10T02:30:48.681Z,6.85
2023-04-10T02:33:18.872Z,5.80
2023-04-10T02:35:47.641Z,5.85
2023-04-10T02:38:17.493Z,5.90
2023-04-10T02:40:46.576Z,5.60
2023-04-10T02:43:16.873Z,5.75
2023-04-10T02:45:45.972Z,5.97
2023-04-10T02:48:21.744Z,8.27
2023-04-10T02:50:57.901Z,6.18
2023-04-10T02:53:27.281Z,5.68
2023-04-10T02:55:59.484Z,6.07
2023-04-10T02:58:30.508Z,5.55
2023-04-10T03:00:59.998Z,5.72
2023-04-10T03:03:43.270Z,5.45
2023-04-10T03:06:12.662Z,5.22
2023-04-10T03:08:43.761Z,5.53
2023-04-10T03:11:13.300Z,5.85
2023-04-10T03:13:42.064Z,6.22
2023-04-10T03:16:10.910Z,5.40
2023-04-10T03:18:40.177Z,5.60
2023-04-10T03:21:10.507Z,6.15
2023-04-10T03:23:39.212Z,5.80
2023-04-10T03:26:08.634Z,5.43
2023-04-10T03:28:41.425Z,5.05
2023-04-10T03:31:12.610Z,5.95
2023-04-10T03:33:43.734Z,5.90
2023-04-10T03:36:13.954Z,5.53
2023-04-10T03:38:42.687Z,5.90
2023-04-10T03:41:11.565Z,5.60
2023-04-10T03:43:41.235Z,5.60
2023-04-10T03:46:10.386Z,5.65
2023-04-10T03:48:43.766Z,5.53
2023-04-10T03:51:13.948Z,6.55
2023-04-10T03:53:42.817Z,5.93
2023-04-10T03:56:16.544Z,4.95
2023-04-10T03:58:45.952Z,5.35
2023-04-10T04:01:16.001Z,5.82
2023-04-10T04:03:59.698Z,5.63
2023-04-10T04:06:49.607Z,5.35
2023-04-10T04:09:44.606Z,5.45
2023-04-10T04:12:21.389Z,5.90
2023-04-10T04:14:50.009Z,5.30
2023-04-10T04:17:37.822Z,5.40
2023-04-10T04:20:07.114Z,5.32
2023-04-10T04:22:51.041Z,6.30
2023-04-10T04:25:38.628Z,6.30
2023-04-10T04:28:07.421Z,6.00
2023-04-10T04:31:11.385Z,6.22
2023-04-10T04:33:52.157Z,6.38
2023-04-10T04:36:44.354Z,5.25
2023-04-10T04:39:23.211Z,5.32
2023-04-10T04:42:10.588Z,5.57
2023-04-10T04:44:42.180Z,6.55
2023-04-10T04:47:49.416Z,5.95
2023-04-10T04:50:56.681Z,6.05
2023-04-10T04:53:54.646Z,5.40
2023-04-10T04:56:43.670Z,5.15
2023-04-10T04:59:30.895Z,5.80
2023-04-10T05:02:25.224Z,5.82
2023-04-10T05:05:23.057Z,5.50
2023-04-10T05:08:12.033Z,5.07
2023-04-10T05:10:48.357Z,5.53
2023-04-10T05:13:56.637Z,5.13
2023-04-10T05:16:40.264Z,5.03
2023-04-10T05:19:21.089Z,5.25
2023-04-10T05:22:08.169Z,4.90
2023-04-10T05:24:45.670Z,5.20
2023-04-10T05:27:26.985Z,4.95
2023-04-10T05:30:09.841Z,5.22
2023-04-10T05:32:58.308Z,4.40
2023-04-10T05:35:44.993Z,5.03
2023-04-10T05:38:24.689Z,5.15
2023-04-10T05:41:14.563Z,4.93
2023-04-10T05:44:03.495Z,5.28
2023-04-10T05:46:59.838Z,4.88
2023-04-10T05:49:40.515Z,5.68
2023-04-10T05:52:22.980Z,4.65
2023-04-10T05:55:06.530Z,4.75
2023-04-10T05:57:54.426Z,4.72
2023-04-10T06:00:50.083Z,4.60
2023-04-10T06:03:43.739Z,5.30
2023-04-10T06:06:13.673Z,5.55
2023-04-10T06:08:42.672Z,4.70
2023-04-10T06:11:11.586Z,5.63
2023-04-10T06:13:41.148Z,5.35
2023-04-10T06:16:10.505Z,5.28
2023-04-10T06:18:40.549Z,5.22
2023-04-10T06:21:11.039Z,4.97
2023-04-10T06:23:41.030Z,5.45
2023-04-10T06:26:09.791Z,4.70
2023-04-10T06:28:39.211Z,5.25
2023-04-10T06:31:08.543Z,4.47
2023-04-10T06:33:39.467Z,4.90
2023-04-10T06:36:11.700Z,3.95
2023-04-10T06:38:46.679Z,4.82
2023-04-10T06:41:15.844Z,4.10
2023-04-10T06:43:46.022Z,4.60
2023-04-10T06:46:16.184Z,5.57
2023-04-10T06:48:45.025Z,3.72
2023-04-10T06:51:15.568Z,3.80
2023-04-10T06:53:44.419Z,4.13
2023-04-10T06:56:13.145Z,3.08
2023-04-10T06:58:41.833Z,3.13
2023-04-10T07:01:10.575Z,3.10
2023-04-10T07:03:39.262Z,2.70
2023-04-10T07:06:08.427Z,3.17
2023-04-10T07:08:38.501Z,2.60
2023-04-10T07:11:07.372Z,2.80
2023-04-10T07:13:38.871Z,2.63
2023-04-10T07:16:08.785Z,3.05
2023-04-10T07:18:39.083Z,2.20
2023-04-10T07:21:12.463Z,2.55
2023-04-10T07:23:42.604Z,2.70
2023-04-10T07:26:11.685Z,2.30
2023-04-10T07:28:40.492Z,2.55
2023-04-10T07:31:10.654Z,2.13
2023-04-10T07:33:40.067Z,1.90
2023-04-10T07:36:09.398Z,1.95
2023-04-10T07:38:38.796Z,2.38
2023-04-10T07:41:09.806Z,2.08
2023-04-10T07:43:38.435Z,1.65
2023-04-10T07:46:07.612Z,1.80
2023-04-10T07:48:36.664Z,2.10
2023-04-10T07:51:05.616Z,1.77
2023-04-10T07:53:34.387Z,1.13
2023-04-10T07:56:03.107Z,1.40
2023-04-10T07:58:33.436Z,1.45
2023-04-10T08:01:02.169Z,1.70
2023-04-10T08:03:31.161Z,1.67
2023-04-10T08:06:00.021Z,1.73
2023-04-10T08:08:28.756Z,1.17
2023-04-10T08:10:57.417Z,0.90
2023-04-10T08:13:26.180Z,1.20
2023-04-10T08:15:56.192Z,1.10
2023-04-10T08:18:24.926Z,1.17
2023-04-10T08:20:53.631Z,1.30
2023-04-10T08:23:22.254Z,0.90
2023-04-10T08:25:51.737Z,1.02
2023-04-10T08:28:21.385Z,1.27
2023-04-10T08:30:50.045Z,1.30
2023-04-10T08:33:20.101Z,1.38
2023-04-10T08:35:49.512Z,1.20
2023-04-10T08:38:18.118Z,1.02
2023-04-10T08:40:46.813Z,2.65
2023-04-10T08:43:15.783Z,0.93
2023-04-10T08:45:44.439Z,1.10
2023-04-10T08:48:13.200Z,1.48
2023-04-10T08:50:47.302Z,1.65
2023-04-10T08:53:16.702Z,1.20
2023-04-10T08:55:46.142Z,0.80
2023-04-10T08:58:14.872Z,1.17
2023-04-10T09:00:43.641Z,1.27
2023-04-10T09:03:14.279Z,1.02
2023-04-10T09:05:44.657Z,1.13
2023-04-10T09:08:13.680Z,1.35
2023-04-10T09:10:42.471Z,1.00
2023-04-10T09:13:11.208Z,1.60
2023-04-10T09:15:58.497Z,1.00
2023-04-10T09:18:42.000Z,0.95
2023-04-10T09:21:13.003Z,1.00
2023-04-10T09:23:42.982Z,0.80
2023-04-10T09:26:25.094Z,1.13
2023-04-10T09:29:01.559Z,1.00
2023-04-10T09:31:32.132Z,1.17
2023-04-10T09:34:11.383Z,1.73
2023-04-10T09:36:42.422Z,1.08
2023-04-10T09:39:11.750Z,1.00
2023-04-10T09:41:53.304Z,1.10
2023-04-10T09:44:31.025Z,1.00
2023-04-10T09:46:59.933Z,1.10
2023-04-10T09:49:28.774Z,1.15
2023-04-10T09:51:58.986Z,0.80
2023-04-10T09:54:38.182Z,2.88
2023-04-10T09:57:08.334Z,1.17
2023-04-10T09:59:40.641Z,1.65
2023-04-10T10:02:11.135Z,1.00
2023-04-10T10:04:41.200Z,1.30
2023-04-10T10:07:11.497Z,1.10
2023-04-10T10:09:40.290Z,1.05
2023-04-10T10:12:09.890Z,1.13
2023-04-10T10:14:40.631Z,1.33
2023-04-10T10:17:13.459Z,0.98
2023-04-10T10:19:44.810Z,1.02
2023-04-10T10:22:15.229Z,1.50
2023-04-10T10:24:47.372Z,1.25
2023-04-10T10:27:17.109Z,1.10
2023-04-10T10:29:46.253Z,2.25
2023-04-10T10:32:15.279Z,1.17
2023-04-10T10:34:44.042Z,1.30
2023-04-10T10:37:13.391Z,1.30
2023-04-10T10:39:49.892Z,1.10
2023-04-10T10:42:22.586Z,1.33
2023-04-10T10:44:54.702Z,1.10
2023-04-10T10:47:27.210Z,1.42
2023-04-10T10:49:57.412Z,1.27
2023-04-10T10:52:39.378Z,1.00
2023-04-10T10:55:27.486Z,1.27
2023-04-10T10:57:59.378Z,1.40
2023-04-10T11:00:28.374Z,1.00
2023-04-10T11:03:16.403Z,1.60
2023-04-10T11:05:52.222Z,1.30
2023-04-10T11:08:36.968Z,1.10
2023-04-10T11:11:07.384Z,1.50
2023-04-10T11:13:38.489Z,1.00
2023-04-10T11:16:08.194Z,0.95
2023-04-10T11:19:06.334Z,1.10
2023-04-10T11:22:00.825Z,1.10
2023-04-10T11:24:29.967Z,1.00
2023-04-10T11:26:58.703Z,1.20
2023-04-10T11:29:38.147Z,1.25
2023-04-10T11:32:07.087Z,1.48
2023-04-10T11:34:36.475Z,1.60
2023-04-10T11:37:05.340Z,1.40
2023-04-10T11:39:33.944Z,1.92
2023-04-10T11:42:02.914Z,1.27
2023-04-10T11:44:35.221Z,1.00
2023-04-10T11:47:08.662Z,1.38
2023-04-10T11:49:37.364Z,1.85
2023-04-10T11:52:06.279Z,1.30
2023-04-10T11:54:35.358Z,1.42
2023-04-10T11:57:05.310Z,1.17
2023-04-10T11:59:34.757Z,1.50
2023-04-10T12:02:09.718Z,1.20
2023-04-10T12:04:40.232Z,1.45
2023-04-10T12:07:09.389Z,1.50
2023-04-10T12:09:38.444Z,1.65
2023-04-10T12:12:08.470Z,1.20
2023-04-10T12:14:38.257Z,1.70
2023-04-10T12:17:09.022Z,1.27
2023-04-10T12:19:40.030Z,1.52
2023-04-10T12:22:13.865Z,1.50
2023-04-10T12:24:43.555Z,1.40
2023-04-10T12:27:18.248Z,1.13
2023-04-10T12:29:47.546Z,1.17
2023-04-10T12:32:17.851Z,1.60
2023-04-10T12:34:51.929Z,1.90
2023-04-10T12:37:20.862Z,1.20
2023-04-10T12:39:49.932Z,1.40
2023-04-10T12:42:19.673Z,1.42
2023-04-10T12:44:55.350Z,1.20
2023-04-10T12:47:26.205Z,1.65
2023-04-10T12:50:11.398Z,2.13
2023-04-10T12:52:41.253Z,1.02
2023-04-10T12:55:11.969Z,1.40
2023-04-10T12:57:41.461Z,1.10
2023-04-10T13:00:11.061Z,1.50
2023-04-10T13:02:45.902Z,1.35
2023-04-10T13:05:14.813Z,1.00
2023-04-10T13:07:44.013Z,1.33
2023-04-10T13:10:12.870Z,1.40
2023-04-10T13:12:42.110Z,1.20
2023-04-10T13:15:11.897Z,1.67
2023-04-10T13:17:42.028Z,0.90
2023-04-10T13:20:11.853Z,1.05
2023-04-10T13:22:40.602Z,1.20
2023-04-10T13:25:09.575Z,0.90
2023-04-10T13:27:38.305Z,0.88
2023-04-10T13:30:07.565Z,1.20
2023-04-10T13:32:36.372Z,1.02
2023-04-10T13:35:06.915Z,1.00
2023-04-10T13:37:35.727Z,1.50
2023-04-10T13:40:05.217Z,0.90
2023-04-10T13:42:35.412Z,1.05
2023-04-10T13:45:05.638Z,1.17
2023-04-10T13:47:34.279Z,0.88
2023-04-10T13:50:03.058Z,1.20
2023-04-10T13:52:33.165Z,1.15
2023-04-10T13:55:01.842Z,0.80
2023-04-10T13:57:30.542Z,1.55
2023-04-10T13:59:59.438Z,0.90
2023-04-10T14:02:28.288Z,1.00
2023-04-10T14:04:57.030Z,1.75
2023-04-10T14:07:25.768Z,1.00
2023-04-10T14:09:56.219Z,0.95
2023-04-10T14:12:25.254Z,1.10
2023-04-10T14:14:53.889Z,1.00
2023-04-10T14:17:22.764Z,1.02
2023-04-10T14:19:53.672Z,1.30
2023-04-10T14:22:22.345Z,1.27
2023-04-10T14:24:52.568Z,0.80
2023-04-10T14:27:26.499Z,0.93
2023-04-10T14:29:55.834Z,0.90
2023-04-10T14:32:24.681Z,1.05
2023-04-10T14:34:53.372Z,0.90
2023-04-10T14:37:22.467Z,1.45
2023-04-10T14:39:51.236Z,1.10
2023-04-10T14:42:19.976Z,1.25
2023-04-10T14:44:50.028Z,1.45
2023-04-10T14:47:18.939Z,1.17
2023-04-10T14:49:47.638Z,0.90
2023-04-10T14:52:16.304Z,1.40
2023-04-10T14:54:45.010Z,1.20
2023-04-10T14:57:15.123Z,1.00
2023-04-10T14:59:44.070Z,1.10
2023-04-10T15:02:14.128Z,0.90
2023-04-10T15:04:42.820Z,1.40
2023-04-10T15:07:11.576Z,1.10
2023-04-10T15:09:40.653Z,1.23
2023-04-10T15:12:09.564Z,1.20
2023-04-10T15:14:38.482Z,2.00
2023-04-10T15:17:07.227Z,1.20
2023-04-10T15:19:37.322Z,1.50
2023-04-10T15:22:06.026Z,1.88
2023-04-10T15:24:47.090Z,1.40
2023-04-10T15:27:21.460Z,1.55
2023-04-10T15:29:50.278Z,1.30
2023-04-10T15:32:19.084Z,3.30
2023-04-10T15:34:49.446Z,1.35
2023-04-10T15:37:18.158Z,1.42
2023-04-10T15:39:46.888Z,1.83
2023-04-10T15:42:16.777Z,1.90
2023-04-10T15:44:49.025Z,2.38
2023-04-10T15:47:17.951Z,1.48
2023-04-10T15:49:46.702Z,1.50
2023-04-10T15:52:16.794Z,1.70
2023-04-10T15:54:45.723Z,1.80
2023-04-10T15:57:14.443Z,2.38
2023-04-10T15:59:43.110Z,1.40
2023-04-10T16:02:11.932Z,1.52
2023-04-10T16:04:41.320Z,1.67
2023-04-10T16:07:10.285Z,1.30
2023-04-10T16:09:40.482Z,1.40
2023-04-10T16:12:09.163Z,1.60
2023-04-10T16:14:37.977Z,1.70
2023-04-10T16:17:06.650Z,1.60
2023-04-10T16:19:35.338Z,1.58
2023-04-10T16:22:04.135Z,1.35
2023-04-10T16:24:33.309Z,1.40
2023-04-10T16:27:03.513Z,1.55
2023-04-10T16:29:32.233Z,1.50
2023-04-10T16:32:01.087Z,1.90
2023-04-10T16:34:29.853Z,2.08
2023-04-10T16:36:58.635Z,2.10
2023-04-10T16:39:27.297Z,1.90
2023-04-10T16:41:56.054Z,2.38
2023-04-10T16:44:26.173Z,1.73
2023-04-10T16:46:54.919Z,1.83
2023-04-10T16:49:24.519Z,1.60
2023-04-10T16:51:53.433Z,1.60
2023-04-10T16:54:22.068Z,1.90
2023-04-10T16:56:50.803Z,1.80
2023-04-10T16:59:19.544Z,2.03
2023-04-10T17:01:49.566Z,1.65
2023-04-10T17:04:20.079Z,1.73
2023-04-10T17:06:49.125Z,2.42
2023-04-10T17:09:17.758Z,2.03
2023-04-10T17:11:46.502Z,2.00
2023-04-10T17:14:16.097Z,1.90
2023-04-10T17:16:45.832Z,1.92
2023-04-10T17:19:17.562Z,1.88
2023-04-10T17:21:46.898Z,2.00
2023-04-10T17:24:17.387Z,2.17
2023-04-10T17:26:46.210Z,2.83
2023-04-10T17:29:14.965Z,2.05
2023-04-10T17:31:43.681Z,2.40
2023-04-10T17:34:12.331Z,2.90
2023-04-10T17:36:42.760Z,2.03
2023-04-10T17:39:11.439Z,2.38
2023-04-10T17:41:40.731Z,2.20
2023-04-10T17:44:10.667Z,2.25
2023-04-10T17:46:39.461Z,2.30
2023-04-10T17:49:08.354Z,2.85
2023-04-10T17:51:37.190Z,2.30
2023-04-10T17:54:07.234Z,3.95
2023-04-10T17:56:36.039Z,4.38
2023-04-10T17:59:04.859Z,3.92
2023-04-10T18:01:33.966Z,2.42
2023-04-10T18:04:02.895Z,2.35
2023-04-10T18:06:31.725Z,2.38
2023-04-10T18:09:00.435Z,2.90
2023-04-10T18:11:30.513Z,3.28
2023-04-10T18:13:59.161Z,3.42
2023-04-10T18:16:27.900Z,5.13
2023-04-10T18:18:56.877Z,3.65
2023-04-10T18:21:27.187Z,2.80
2023-04-10T18:23:55.947Z,3.67
2023-04-10T18:26:24.631Z,3.20
2023-04-10T18:28:54.878Z,3.38
2023-04-10T18:31:23.905Z,2.80
2023-04-10T18:34:06.604Z,2.22
2023-04-10T18:36:36.860Z,3.13
2023-04-10T18:39:07.098Z,2.60
2023-04-10T18:41:36.496Z,2.00
2023-04-10T18:44:06.936Z,2.40
2023-04-10T18:46:36.092Z,2.53
2023-04-10T18:49:04.977Z,2.53
2023-04-10T18:51:35.376Z,2.75
2023-04-10T18:54:04.274Z,2.97
2023-04-10T18:56:35.457Z,2.70
2023-04-10T18:59:04.362Z,2.70
2023-04-10T19:01:35.119Z,2.55
2023-04-10T19:04:04.517Z,2.85
2023-04-10T19:06:33.482Z,2.85
2023-04-10T19:09:02.179Z,3.00
2023-04-10T19:11:30.895Z,2.55
2023-04-10T19:13:59.670Z,2.70
2023-04-10T19:16:28.458Z,2.63
2023-04-10T19:18:58.643Z,2.75
2023-04-10T19:21:27.851Z,2.47
2023-04-10T19:23:56.559Z,2.70
2023-04-10T19:26:25.544Z,3.03
2023-04-10T19:28:55.192Z,2.80
2023-04-10T19:31:27.589Z,2.88
2023-04-10T19:33:57.872Z,2.50
2023-04-10T19:36:28.917Z,4.07
2023-04-10T19:38:57.906Z,5.70
2023-04-10T19:41:27.911Z,4.30
2023-04-10T19:43:56.868Z,4.50
2023-04-10T19:46:25.804Z,4.55
2023-04-10T19:48:55.080Z,4.28
2023-04-10T19:51:25.561Z,5.68
2023-04-10T19:53:55.789Z,4.90
2023-04-10T19:56:24.891Z,4.30
2023-04-10T19:58:53.579Z,3.25
2023-04-10T20:01:25.282Z,3.42
2023-04-10T20:03:55.973Z,3.80
2023-04-10T20:06:27.236Z,3.45
2023-04-10T20:08:56.183Z,3.72
2023-04-10T20:11:30.485Z,3.78
2023-04-10T20:13:59.392Z,3.10
2023-04-10T20:16:28.161Z,3.00
2023-04-10T20:18:57.074Z,2.90
2023-04-10T20:21:27.750Z,3.13
2023-04-10T20:23:59.793Z,2.90
2023-04-10T20:26:28.762Z,2.95
2023-04-10T20:28:58.042Z,3.20
2023-04-10T20:31:27.015Z,2.80
2023-04-10T20:33:55.774Z,3.38
2023-04-10T20:36:24.410Z,2.70
2023-04-10T20:38:56.086Z,3.13
2023-04-10T20:41:26.330Z,2.90
2023-04-10T20:43:55.985Z,3.00
2023-04-10T20:46:27.122Z,2.78
2023-04-10T20:48:57.017Z,3.72
2023-04-10T20:51:27.112Z,3.17
2023-04-10T20:53:57.269Z,3.50
2023-04-10T20:56:33.301Z,3.20
2023-04-10T20:59:09.249Z,3.13
2023-04-10T21:01:38.591Z,2.90
2023-04-10T21:04:07.545Z,3.35
2023-04-10T21:06:36.230Z,2.95
2023-04-10T21:09:06.306Z,3.25
2023-04-10T21:11:35.052Z,3.60
2023-04-10T21:14:03.718Z,3.28
2023-04-10T21:16:34.861Z,3.42
2023-04-10T21:19:03.577Z,3.25
2023-04-10T21:21:32.298Z,3.97
2023-04-10T21:24:01.118Z,4.65
2023-04-10T21:26:31.297Z,3.65
2023-04-10T21:28:59.928Z,3.15
2023-04-10T21:31:28.745Z,3.45
2023-04-10T21:33:57.395Z,2.78
2023-04-10T21:36:26.479Z,2.70
2023-04-10T21:38:55.424Z,2.60
2023-04-10T21:41:24.398Z,2.80
2023-04-10T21:43:56.464Z,3.10
2023-04-10T21:46:25.411Z,4.60
2023-04-10T21:48:54.417Z,3.60
2023-04-10T21:51:24.676Z,3.10
2023-04-10T21:53:54.990Z,3.38
2023-04-10T21:56:23.636Z,3.05
2023-04-10T21:58:54.130Z,3.22
2023-04-10T22:01:23.010Z,2.80
2023-04-10T22:03:53.314Z,2.90
2023-04-10T22:06:22.057Z,2.67
2023-04-10T22:08:50.663Z,2.72
2023-04-10T22:11:19.359Z,3.28
2023-04-10T22:13:48.123Z,2.75
2023-04-10T22:16:18.199Z,2.55
2023-04-10T22:18:47.292Z,3.15
2023-04-10T22:21:15.975Z,2.67
2023-04-10T22:23:44.725Z,3.08
2023-04-10T22:26:13.406Z,2.83
2023-04-10T22:28:42.157Z,2.83
2023-04-10T22:31:16.623Z,3.15
2023-04-10T22:33:46.756Z,3.10
2023-04-10T22:36:15.481Z,3.03
2023-04-10T22:38:44.193Z,2.63
2023-04-10T22:41:12.917Z,3.08
2023-04-10T22:43:41.672Z,2.72
2023-04-10T22:46:11.050Z,2.97
2023-04-10T22:48:39.787Z,2.70
2023-04-10T22:51:13.295Z,3.05
2023-04-10T22:53:42.121Z,2.55
2023-04-10T22:56:11.666Z,3.10
2023-04-10T22:58:41.155Z,2.95
2023-04-10T23:01:13.434Z,2.88
2023-04-10T23:03:42.542Z,3.28
2023-04-10T23:06:12.934Z,3.00
2023-04-10T23:08:41.610Z,3.05
2023-04-10T23:11:10.399Z,2.55
2023-04-10T23:13:39.109Z,3.17
2023-04-10T23:16:08.307Z,3.42
2023-04-10T23:18:37.668Z,3.60
2023-04-10T23:21:07.596Z,3.20
2023-04-10T23:23:37.733Z,3.40
2023-04-10T23:26:06.628Z,3.17
2023-04-10T23:28:35.356Z,3.13
2023-04-10T23:31:04.207Z,3.17
2023-04-10T23:33:32.959Z,3.00
2023-04-10T23:36:01.786Z,3.35
2023-04-10T23:38:30.545Z,3.17
2023-04-10T23:41:02.921Z,3.65
2023-04-10T23:43:32.014Z,3.20
2023-04-10T23:46:00.881Z,3.47
2023-04-10T23:48:29.529Z,3.13
2023-04-10T23:51:05.188Z,3.28
2023-04-10T23:53:34.087Z,3.50
2023-04-10T23:56:04.245Z,3.10
2023-04-10T23:58:32.920Z,3.88
